Flugplatz Berlin-Schönefeld International

Bericht für EDDB

vom 14.11. um 04:50 UTC

Wind 8 kt aus 240°

Sichtweite 10 km oder mehr

gute Sicht, keine Wolken < 5000 ft, keine CB, keine Wettererscheinungen (CAVOK)

Temperatur 4.0°C

Taupunkt 4.0°C

Luftfeuchtigkeit 100%

Luftdruck 1028 hPa

keine wesentliche Wetteränderung innerhalb den nächsten 2 Stunden zu erwarten

EDDB 140450Z 24008KT CAVOK 04/04 Q1028 NOSIG

Prognose für EDDB

vom 13.11. um 23:00 UTC

Zwischen 00:00 UTC und 14:00 UTC

Wind 8 kt aus 250°

Sichtweite 10 km oder mehr

aufgelockert bewölkt in 4000 ft


Zwischen 05:00 UTC und 09:00 UTC zeitweise mit einer Wahrscheinlichkeit von 30%

aufgebrochene Bewölkung in 1200 ft


Zwischen 14:00 und 16:00 UTC übergehend zu

variable Windrichtung mit 3 kt

Sichtweite 10 km oder mehr

aufgelockert bewölkt in 4000 ft

TAF EDDB 132300Z 1400/1424 25008KT 9999 SCT040 PROB30 TEMPO 1405/1409 BKN012 BECMG 1414/1416 VRB03KT
Impressum